Time;durP1;ratioP1;P1;durP2;ratioP2;P2;SDS_P1;SDS_P2;PMS_P1;PMS_P2;Temp;Humidity;BMP_temperature;BMP_pressure;BME280_temperature;BME280_humidity;BME280_pressure;Samples;Min_cycle;Max_cycle;Signal;HPM_P1;HPM_P2
2024/03/03 00:01:32;;;;;;;25.60;17.10;;;9.90;99.90;;;;;;5053639;28;20209;-57
2024/03/03 00:03:59;;;;;;;25.97;16.93;;;9.90;99.90;;;;;;5053497;28;20202;-57
2024/03/03 00:06:26;;;;;;;27.03;18.33;;;9.90;99.90;;;;;;5053649;28;20320;-56
2024/03/03 00:08:52;;;;;;;28.03;17.83;;;9.90;99.90;;;;;;5053331;28;20206;-58
2024/03/03 00:11:20;;;;;;;25.00;17.70;;;10.00;99.90;;;;;;5053475;28;20263;-57
2024/03/03 00:13:47;;;;;;;24.93;16.70;;;9.80;99.90;;;;;;5053066;28;20205;-59
2024/03/03 00:16:14;;;;;;;26.37;18.67;;;9.70;99.90;;;;;;5053790;28;20230;-58
2024/03/03 00:18:40;;;;;;;25.27;17.93;;;9.70;99.90;;;;;;5053350;28;20581;-57
2024/03/03 00:21:14;;;;;;;26.77;17.37;;;9.80;99.90;;;;;;5053087;28;20624;-58
2024/03/03 00:23:41;;;;;;;26.77;17.70;;;9.80;99.90;;;;;;5053025;28;20201;-57
2024/03/03 00:26:07;;;;;;;26.70;17.40;;;9.90;99.90;;;;;;5052910;28;20232;-58
2024/03/03 00:28:35;;;;;;;29.03;18.50;;;9.90;99.90;;;;;;5052951;28;20212;-56
2024/03/03 00:31:02;;;;;;;26.53;17.93;;;9.80;99.90;;;;;;5052834;28;20224;-56
2024/03/03 00:33:29;;;;;;;28.40;18.23;;;9.80;99.90;;;;;;5052955;28;20289;-57
2024/03/03 00:35:56;;;;;;;27.87;18.20;;;9.80;99.90;;;;;;5052746;28;20312;-57
2024/03/03 00:38:22;;;;;;;23.30;16.73;;;9.90;99.90;;;;;;5052794;28;20589;-56
2024/03/03 00:40:49;;;;;;;29.13;18.23;;;9.80;99.90;;;;;;5052745;28;20218;-58
2024/03/03 00:43:15;;;;;;;25.33;17.33;;;9.70;99.90;;;;;;5052474;28;20209;-57
2024/03/03 00:45:43;;;;;;;24.00;16.43;;;9.70;99.90;;;;;;5052395;28;20785;-58
2024/03/03 00:48:10;;;;;;;28.67;16.87;;;9.60;99.90;;;;;;5052653;28;20201;-56
2024/03/03 00:50:37;;;;;;;24.20;17.07;;;9.60;99.90;;;;;;5052753;28;20221;-56
2024/03/03 00:53:04;;;;;;;30.17;19.87;;;9.50;99.90;;;;;;5052651;28;20293;-57
2024/03/03 00:55:30;;;;;;;29.00;18.17;;;9.50;99.90;;;;;;5052608;28;20283;-59
2024/03/03 00:57:58;;;;;;;28.57;18.03;;;9.40;99.90;;;;;;5052665;28;20240;-57
2024/03/03 01:00:24;;;;;;;25.23;18.10;;;9.40;99.90;;;;;;5052845;28;20201;-57
2024/03/03 01:02:52;;;;;;;25.70;17.67;;;9.40;99.90;;;;;;5052564;28;20564;-57
2024/03/03 01:05:19;;;;;;;26.93;19.47;;;9.40;99.90;;;;;;5052589;28;20722;-57
2024/03/03 01:07:46;;;;;;;27.13;18.37;;;9.40;99.90;;;;;;5052393;28;20663;-57
2024/03/03 01:10:12;;;;;;;28.70;18.83;;;9.40;99.90;;;;;;5052315;28;20781;-58
2024/03/03 01:12:39;;;;;;;24.83;18.10;;;9.40;99.90;;;;;;5052039;28;20744;-57
2024/03/03 01:15:06;;;;;;;25.40;18.00;;;9.40;99.90;;;;;;5052293;28;20201;-57
2024/03/03 01:17:33;;;;;;;28.63;18.60;;;9.40;99.90;;;;;;5052567;28;20233;-56
2024/03/03 01:20:01;;;;;;;28.47;19.00;;;9.30;99.90;;;;;;5052042;28;20255;-57
2024/03/03 01:22:28;;;;;;;30.47;19.77;;;9.30;99.90;;;;;;5051906;28;20212;-57
2024/03/03 01:24:54;;;;;;;26.53;18.43;;;9.20;99.90;;;;;;5051617;28;20209;-57
2024/03/03 01:27:21;;;;;;;27.23;18.23;;;9.10;99.90;;;;;;5052563;28;20213;-56
2024/03/03 01:29:48;;;;;;;27.50;19.20;;;9.00;99.90;;;;;;5052340;28;20703;-56
2024/03/03 01:32:15;;;;;;;30.40;18.83;;;8.90;99.90;;;;;;5051962;28;20206;-58
2024/03/03 01:34:41;;;;;;;26.10;18.40;;;8.90;99.90;;;;;;5052113;28;20210;-58
2024/03/03 01:37:09;;;;;;;29.93;18.80;;;8.90;99.90;;;;;;5043617;28;20689;-58
2024/03/03 01:39:38;;;;;;;27.47;18.83;;;8.90;99.90;;;;;;5051952;28;20549;-58
2024/03/03 01:42:05;;;;;;;25.23;18.03;;;8.70;99.90;;;;;;5051323;28;20629;-58
2024/03/03 01:44:32;;;;;;;27.80;18.43;;;8.60;99.90;;;;;;5051613;28;20702;-56
2024/03/03 01:46:59;;;;;;;26.47;17.43;;;8.30;99.90;;;;;;5051495;28;20259;-56
2024/03/03 01:49:27;;;;;;;23.87;16.80;;;8.30;99.90;;;;;;5051736;28;20209;-56
2024/03/03 01:51:54;;;;;;;25.50;18.60;;;8.20;99.90;;;;;;5051328;28;20213;-57
2024/03/03 01:54:22;;;;;;;26.53;18.10;;;8.20;99.90;;;;;;5051855;28;20259;-57
2024/03/03 01:56:50;;;;;;;25.70;17.80;;;8.20;99.90;;;;;;5051074;28;20225;-57
2024/03/03 01:59:17;;;;;;;26.47;17.33;;;8.20;99.90;;;;;;5051368;28;20627;-57
2024/03/03 02:01:45;;;;;;;25.57;17.30;;;8.30;99.90;;;;;;5051522;28;20571;-56
2024/03/03 02:04:13;;;;;;;25.73;18.33;;;8.40;99.90;;;;;;5051261;28;20621;-57
2024/03/03 02:06:42;;;;;;;29.30;18.70;;;8.40;99.90;;;;;;5051562;28;20229;-56
2024/03/03 02:09:10;;;;;;;28.37;18.43;;;8.30;99.90;;;;;;5043597;28;20293;-57
2024/03/03 02:11:39;;;;;;;28.17;18.20;;;8.40;99.90;;;;;;5051431;28;20230;-56
2024/03/03 02:14:06;;;;;;;25.90;17.90;;;8.50;99.90;;;;;;5051175;28;20233;-57
2024/03/03 02:16:32;;;;;;;29.40;18.83;;;8.50;99.90;;;;;;5051251;28;20579;-56
2024/03/03 02:18:59;;;;;;;27.93;18.17;;;8.50;99.90;;;;;;5051379;28;20256;-56
2024/03/03 02:21:27;;;;;;;27.57;18.87;;;8.50;99.90;;;;;;5051459;28;20198;-57
2024/03/03 02:23:54;;;;;;;26.73;18.17;;;8.50;99.90;;;;;;5051131;28;20383;-57
2024/03/03 02:26:22;;;;;;;22.83;16.80;;;8.50;99.90;;;;;;5051482;28;20233;-57
2024/03/03 02:28:51;;;;;;;26.90;17.67;;;8.50;99.90;;;;;;5051405;28;20336;-56
2024/03/03 02:31:17;;;;;;;28.77;18.73;;;8.50;99.90;;;;;;5051313;28;20225;-58
2024/03/03 02:33:44;;;;;;;28.70;19.10;;;8.50;99.90;;;;;;5051172;28;20216;-56
2024/03/03 02:36:11;;;;;;;27.53;18.30;;;8.50;99.90;;;;;;5051269;28;20217;-56
2024/03/03 02:38:42;;;;;;;26.73;16.97;;;8.50;99.90;;;;;;5051347;28;20202;-57
2024/03/03 02:41:09;;;;;;;27.70;18.17;;;8.30;99.90;;;;;;5042876;28;20201;-58
2024/03/03 02:43:36;;;;;;;24.67;17.33;;;8.30;99.90;;;;;;5050715;28;20663;-57
2024/03/03 02:46:02;;;;;;;25.70;17.47;;;8.30;99.90;;;;;;5050763;28;20233;-57
2024/03/03 02:48:29;;;;;;;27.60;18.30;;;8.30;99.90;;;;;;5051237;28;20259;-56
2024/03/03 02:50:56;;;;;;;24.80;18.10;;;8.30;99.90;;;;;;5050880;28;20308;-57
2024/03/03 02:53:22;;;;;;;29.37;18.30;;;8.30;99.90;;;;;;5050584;28;20206;-58
2024/03/03 02:55:50;;;;;;;31.50;22.03;;;8.20;99.90;;;;;;5050834;28;20259;-57
2024/03/03 02:58:17;;;;;;;30.63;19.70;;;8.20;99.90;;;;;;5051090;28;20252;-58
2024/03/03 03:00:44;;;;;;;29.83;19.90;;;8.20;99.90;;;;;;5050780;28;20198;-56
2024/03/03 03:03:11;;;;;;;25.90;18.57;;;8.20;99.90;;;;;;5042648;28;20597;-56
2024/03/03 03:05:38;;;;;;;29.20;19.17;;;8.20;99.90;;;;;;5050911;28;20226;-57
2024/03/03 03:08:05;;;;;;;28.77;18.10;;;8.20;99.90;;;;;;5052711;28;20214;-57
2024/03/03 03:10:32;;;;;;;27.80;18.97;;;8.20;99.90;;;;;;5054406;28;20222;-55
2024/03/03 03:13:00;;;;;;;26.77;18.93;;;8.20;99.90;;;;;;5054132;28;20256;-56
2024/03/03 03:15:26;;;;;;;27.00;18.10;;;8.20;99.90;;;;;;5054419;28;20237;-57
2024/03/03 03:17:53;;;;;;;26.67;17.60;;;8.20;99.90;;;;;;5054411;28;20252;-57
2024/03/03 03:20:20;;;;;;;26.27;17.63;;;8.10;99.90;;;;;;5054301;28;20562;-55
2024/03/03 03:22:46;;;;;;;24.57;16.90;;;8.00;99.90;;;;;;5053770;28;20212;-57
2024/03/03 03:25:13;;;;;;;25.30;16.83;;;8.10;99.90;;;;;;5054203;28;20232;-58
2024/03/03 03:27:41;;;;;;;29.97;18.07;;;8.10;99.90;;;;;;5054062;28;20263;-58
2024/03/03 03:30:10;;;;;;;25.53;17.07;;;8.20;99.90;;;;;;5054228;28;20221;-58
2024/03/03 03:32:36;;;;;;;25.13;17.23;;;8.20;99.90;;;;;;5053811;28;20209;-57
2024/03/03 03:35:03;;;;;;;31.90;19.60;;;8.20;99.90;;;;;;5053863;28;20210;-58
2024/03/03 03:37:30;;;;;;;28.37;18.37;;;8.20;99.90;;;;;;5053797;28;20691;-58
2024/03/03 03:39:58;;;;;;;28.33;18.63;;;8.10;99.90;;;;;;5053751;28;20213;-58
2024/03/03 03:42:24;;;;;;;28.83;18.30;;;8.10;99.90;;;;;;5053466;28;20255;-57
2024/03/03 03:44:51;;;;;;;24.87;17.67;;;8.10;99.90;;;;;;5053830;28;20243;-58
2024/03/03 03:47:19;;;;;;;27.43;19.03;;;8.00;99.90;;;;;;5054154;28;20255;-58
2024/03/03 03:49:46;;;;;;;29.43;19.20;;;8.00;99.90;;;;;;5053670;28;20213;-56
2024/03/03 03:52:12;;;;;;;27.57;18.43;;;7.90;99.90;;;;;;5053433;28;20232;-57
2024/03/03 03:54:39;;;;;;;27.93;18.30;;;7.90;99.90;;;;;;5054077;28;20694;-58
2024/03/03 03:57:05;;;;;;;27.60;18.30;;;7.80;99.90;;;;;;5053487;28;20225;-58
2024/03/03 03:59:32;;;;;;;31.43;19.57;;;7.80;99.90;;;;;;5053525;28;20205;-57
2024/03/03 04:02:03;;;;;;;27.27;18.03;;;7.70;99.90;;;;;;5053317;28;20251;-57
2024/03/03 04:04:34;;;;;;;27.90;18.67;;;7.80;99.90;;;;;;5053466;28;20233;-58
2024/03/03 04:07:01;;;;;;;29.00;18.93;;;7.80;99.90;;;;;;5053362;28;20312;-57
2024/03/03 04:09:29;;;;;;;27.07;18.67;;;7.80;99.90;;;;;;5053411;28;20296;-58
2024/03/03 04:11:56;;;;;;;28.27;17.67;;;7.80;99.90;;;;;;5053216;28;20312;-56
2024/03/03 04:14:23;;;;;;;30.63;18.40;;;7.70;99.90;;;;;;5053622;28;20751;-56
2024/03/03 04:16:50;;;;;;;26.67;18.27;;;7.70;99.90;;;;;;5053220;28;20726;-57
2024/03/03 04:19:16;;;;;;;27.33;18.23;;;7.70;99.90;;;;;;5053238;28;20205;-57
2024/03/03 04:21:44;;;;;;;28.90;18.90;;;7.70;99.90;;;;;;5053211;28;20206;-57
2024/03/03 04:24:11;;;;;;;26.00;18.07;;;7.60;99.90;;;;;;5052701;28;20201;-57
2024/03/03 04:26:38;;;;;;;30.00;18.80;;;7.60;99.90;;;;;;5053255;28;20221;-57
2024/03/03 04:29:05;;;;;;;29.67;19.67;;;7.60;99.90;;;;;;5053292;28;20210;-56
2024/03/03 04:31:31;;;;;;;29.30;18.87;;;7.50;99.90;;;;;;5053393;28;20224;-57
2024/03/03 04:33:58;;;;;;;26.17;18.10;;;7.40;99.90;;;;;;5053182;28;20236;-57
2024/03/03 04:36:25;;;;;;;28.73;18.83;;;7.40;99.90;;;;;;5052681;28;20229;-56
2024/03/03 04:38:53;;;;;;;26.23;18.20;;;7.40;99.90;;;;;;5053222;28;20213;-57
2024/03/03 04:41:20;;;;;;;26.83;18.50;;;7.40;99.90;;;;;;5052920;28;20206;-57
2024/03/03 04:43:47;;;;;;;28.40;18.93;;;7.30;99.90;;;;;;5052254;28;20671;-54
2024/03/03 04:46:14;;;;;;;28.20;18.03;;;7.30;99.90;;;;;;5052487;28;20234;-56
2024/03/03 04:48:41;;;;;;;30.47;19.07;;;7.40;99.90;;;;;;5052662;28;20251;-56
2024/03/03 04:51:08;;;;;;;27.77;17.57;;;7.30;99.90;;;;;;5052290;28;20225;-58
2024/03/03 04:53:34;;;;;;;26.33;18.10;;;7.30;99.90;;;;;;5052507;28;20206;-57
2024/03/03 04:56:03;;;;;;;28.53;18.77;;;7.20;99.90;;;;;;5052517;28;20252;-57
2024/03/03 04:58:30;;;;;;;28.37;18.87;;;7.10;99.90;;;;;;5052644;28;20206;-56
2024/03/03 05:00:57;;;;;;;28.77;18.13;;;7.10;99.90;;;;;;5052393;28;20232;-57
2024/03/03 05:03:24;;;;;;;27.10;17.63;;;7.10;99.90;;;;;;5051986;28;20228;-57
2024/03/03 05:05:51;;;;;;;26.13;17.53;;;7.00;99.90;;;;;;5052296;28;20229;-57
2024/03/03 05:08:17;;;;;;;31.80;21.83;;;7.00;99.90;;;;;;5052644;28;20581;-57
2024/03/03 05:10:44;;;;;;;29.40;18.53;;;7.00;99.90;;;;;;5052281;28;20650;-57
2024/03/03 05:13:12;;;;;;;30.70;18.37;;;7.10;99.90;;;;;;5052149;28;20202;-57
2024/03/03 05:15:38;;;;;;;24.90;17.77;;;7.10;99.90;;;;;;5052019;28;20284;-57
2024/03/03 05:18:05;;;;;;;28.43;18.73;;;7.10;99.90;;;;;;5051887;28;20271;-57
2024/03/03 05:20:32;;;;;;;26.77;18.43;;;7.10;99.90;;;;;;5052358;28;20206;-56
2024/03/03 05:22:59;;;;;;;30.60;19.07;;;7.20;99.90;;;;;;5051896;28;20260;-58
2024/03/03 05:25:25;;;;;;;26.77;17.90;;;7.10;99.90;;;;;;5051966;28;20225;-58
2024/03/03 05:27:53;;;;;;;29.10;18.23;;;7.10;99.90;;;;;;5051876;28;20209;-56
2024/03/03 05:30:21;;;;;;;27.07;18.97;;;7.00;99.90;;;;;;5051186;28;20240;-57
2024/03/03 05:32:48;;;;;;;27.17;17.60;;;7.00;99.90;;;;;;5051371;28;20221;-58
2024/03/03 05:35:15;;;;;;;28.93;19.03;;;7.00;99.90;;;;;;5043828;28;20230;-57
2024/03/03 05:37:41;;;;;;;28.90;18.90;;;7.00;99.90;;;;;;5051904;28;20202;-56
2024/03/03 05:40:09;;;;;;;29.53;21.23;;;7.00;99.90;;;;;;5051715;28;20872;-58
2024/03/03 05:42:36;;;;;;;25.43;16.67;;;7.00;99.90;;;;;;5051653;28;20210;-57
2024/03/03 05:45:03;;;;;;;26.17;17.40;;;7.00;99.90;;;;;;5051306;28;20205;-59
2024/03/03 05:47:31;;;;;;;24.27;17.20;;;7.00;99.90;;;;;;5051857;28;20209;-56
2024/03/03 05:49:58;;;;;;;24.30;16.33;;;7.00;99.90;;;;;;5051632;28;20212;-56
2024/03/03 05:52:25;;;;;;;25.10;17.07;;;7.00;99.90;;;;;;5051442;28;20574;-56
2024/03/03 05:54:51;;;;;;;21.57;15.00;;;6.90;99.90;;;;;;5051613;28;20209;-56
2024/03/03 05:57:18;;;;;;;20.90;15.07;;;6.90;99.90;;;;;;5051613;28;20271;-57
2024/03/03 05:59:45;;;;;;;23.17;15.50;;;6.90;99.90;;;;;;5051287;28;20255;-56
2024/03/03 06:02:11;;;;;;;23.37;16.10;;;6.80;99.90;;;;;;5051189;28;20293;-57
2024/03/03 06:04:39;;;;;;;22.03;15.23;;;6.80;99.90;;;;;;5051584;28;20670;-57
2024/03/03 06:07:06;;;;;;;26.10;15.97;;;6.80;99.90;;;;;;5051358;28;20323;-57
2024/03/03 06:09:34;;;;;;;22.73;15.60;;;6.70;99.90;;;;;;5051458;28;20209;-56
2024/03/03 06:12:02;;;;;;;25.60;16.13;;;6.70;99.90;;;;;;5050966;28;20283;-56
2024/03/03 06:14:29;;;;;;;33.03;19.87;;;6.60;99.90;;;;;;5051225;28;20209;-56
2024/03/03 06:16:56;;;;;;;26.47;17.70;;;6.60;99.90;;;;;;5051448;28;20229;-57
2024/03/03 06:19:23;;;;;;;27.43;17.90;;;6.60;99.90;;;;;;5051640;28;20205;-56
2024/03/03 06:21:51;;;;;;;22.17;15.57;;;6.60;99.90;;;;;;5051614;28;20205;-56
2024/03/03 06:24:18;;;;;;;22.37;15.50;;;6.70;99.90;;;;;;5043289;28;20255;-58
2024/03/03 06:26:44;;;;;;;27.03;16.30;;;6.70;99.90;;;;;;5051067;28;20312;-58
2024/03/03 06:29:11;;;;;;;25.70;17.10;;;6.70;99.90;;;;;;5051545;28;20210;-57
2024/03/03 06:31:43;;;;;;;25.20;17.07;;;6.80;99.90;;;;;;5051312;28;20225;-57
2024/03/03 06:34:10;;;;;;;24.63;15.80;;;6.80;99.90;;;;;;5051122;28;20208;-57
2024/03/03 06:36:37;;;;;;;24.17;16.33;;;6.80;99.90;;;;;;5050876;28;20719;-57
2024/03/03 06:39:05;;;;;;;25.00;16.23;;;6.80;99.90;;;;;;5051200;28;20245;-57
2024/03/03 06:41:32;;;;;;;25.80;17.07;;;6.70;99.90;;;;;;5052204;28;20202;-57
2024/03/03 06:43:58;;;;;;;24.93;16.50;;;6.60;99.90;;;;;;5054971;28;20210;-56
2024/03/03 06:46:25;;;;;;;25.07;16.37;;;6.60;99.90;;;;;;5054806;28;20324;-56
2024/03/03 06:48:52;;;;;;;25.03;17.47;;;6.70;99.90;;;;;;5054761;28;20630;-55
2024/03/03 06:51:18;;;;;;;25.80;17.97;;;7.20;99.90;;;;;;5055151;28;20221;-56
2024/03/03 06:53:45;;;;;;;23.40;16.47;;;8.20;99.90;;;;;;5054591;28;20210;-56
2024/03/03 06:56:17;;;;;;;21.93;14.53;;;9.40;99.90;;;;;;5054519;28;20233;-56
2024/03/03 06:58:45;;;;;;;20.50;13.70;;;10.70;99.90;;;;;;5054996;28;20205;-55
2024/03/03 07:01:12;;;;;;;17.73;12.90;;;11.80;99.90;;;;;;5054519;28;20209;-56
2024/03/03 07:04:02;;;;;;;19.27;13.40;;;13.00;99.90;;;;;;5054495;28;20235;-58
2024/03/03 07:06:29;;;;;;;17.63;13.07;;;14.00;99.90;;;;;;5048194;28;20241;-57
2024/03/03 07:08:56;;;;;;;18.10;13.33;;;15.00;99.90;;;;;;5054629;28;20210;-59
2024/03/03 07:11:24;;;;;;;16.67;12.55;;;15.70;99.90;;;;;;5054796;28;20316;-56
2024/03/03 07:13:51;;;;;;;17.00;13.30;;;16.40;99.90;;;;;;5054320;28;20217;-56
2024/03/03 07:16:18;;;;;;;16.42;13.00;;;17.10;99.90;;;;;;5046222;28;20233;-58
2024/03/03 07:18:45;;;;;;;17.90;13.73;;;17.60;99.90;;;;;;5054297;28;20658;-57
2024/03/03 07:21:12;;;;;;;16.75;12.75;;;18.00;99.90;;;;;;5054236;28;20694;-57
2024/03/03 07:23:39;;;;;;;15.25;12.25;;;18.50;99.90;;;;;;5054077;28;20209;-57
2024/03/03 07:26:06;;;;;;;17.73;12.65;;;18.90;99.90;;;;;;5054233;28;20313;-58
2024/03/03 07:28:34;;;;;;;17.20;11.80;;;19.20;99.90;;;;;;5054369;28;20591;-57
2024/03/03 07:31:00;;;;;;;15.65;12.35;;;19.50;99.90;;;;;;5054182;28;20592;-58
2024/03/03 07:33:27;;;;;;;16.08;12.73;;;19.70;99.90;;;;;;5054072;28;20762;-57
2024/03/03 07:35:54;;;;;;;15.15;12.13;;;19.70;99.90;;;;;;5054072;28;21248;-58
2024/03/03 07:38:20;;;;;;;16.13;12.10;;;19.80;99.90;;;;;;5054352;28;20267;-57
2024/03/03 07:40:47;;;;;;;14.88;12.23;;;19.60;99.90;;;;;;5054003;28;20198;-57
2024/03/03 07:43:14;;;;;;;12.98;11.02;;;19.30;99.90;;;;;;5053882;28;20197;-57
2024/03/03 07:45:42;;;;;;;14.95;11.88;;;18.90;99.90;;;;;;5053850;28;20226;-57
2024/03/03 07:48:09;;;;;;;15.63;12.30;;;18.20;99.90;;;;;;5053789;28;20248;-57
2024/03/03 07:50:36;;;;;;;14.80;11.95;;;17.40;99.90;;;;;;5053875;28;20210;-58
2024/03/03 07:53:02;;;;;;;14.32;11.35;;;16.40;99.90;;;;;;5052313;28;20225;-59
2024/03/03 07:55:29;;;;;;;15.57;11.82;;;15.40;99.90;;;;;;5053687;28;20259;-57
2024/03/03 07:57:56;;;;;;;14.40;12.00;;;14.50;99.90;;;;;;5053728;28;20201;-57
2024/03/03 08:00:22;;;;;;;14.43;11.43;;;13.70;99.90;;;;;;5053558;28;20232;-57
2024/03/03 08:02:50;;;;;;;16.80;12.50;;;13.20;99.90;;;;;;5053174;28;20633;-57
2024/03/03 08:05:17;;;;;;;15.50;12.07;;;12.80;99.90;;;;;;5053100;28;20725;-58
2024/03/03 08:07:43;;;;;;;15.27;11.90;;;12.60;99.90;;;;;;5053363;28;20284;-58
2024/03/03 08:10:10;;;;;;;18.57;12.73;;;12.50;99.90;;;;;;5053333;28;20205;-57
2024/03/03 08:12:37;;;;;;;15.67;11.80;;;12.30;99.90;;;;;;5052973;28;20225;-57
2024/03/03 08:15:06;;;;;;;17.03;12.47;;;12.20;99.90;;;;;;5052902;28;20197;-58
2024/03/03 08:17:32;;;;;;;17.03;11.90;;;12.10;99.90;;;;;;5053262;28;20263;-58
2024/03/03 08:20:00;;;;;;;18.33;12.77;;;12.00;99.90;;;;;;5053051;28;20198;-58
2024/03/03 08:22:27;;;;;;;14.57;11.83;;;12.00;99.90;;;;;;5052945;28;20194;-58
2024/03/03 08:24:54;;;;;;;16.37;12.00;;;12.00;99.90;;;;;;5052885;28;20206;-56
2024/03/03 08:27:21;;;;;;;15.27;11.50;;;11.90;99.90;;;;;;5044854;28;20229;-63
2024/03/03 08:29:47;;;;;;;15.27;10.47;;;11.90;99.90;;;;;;5052686;28;20566;-60
2024/03/03 08:32:14;;;;;;;13.90;10.40;;;11.90;99.90;;;;;;5052631;28;20225;-56
2024/03/03 08:34:41;;;;;;;15.83;11.53;;;11.90;99.90;;;;;;5053157;28;20275;-58
2024/03/03 08:37:09;;;;;;;13.23;10.50;;;11.80;99.90;;;;;;5052995;28;20279;-56
2024/03/03 08:39:35;;;;;;;14.87;11.33;;;12.00;99.90;;;;;;5053315;28;20574;-57
2024/03/03 08:42:02;;;;;;;13.13;10.33;;;12.00;99.90;;;;;;5053066;28;20201;-58
2024/03/03 08:44:31;;;;;;;13.23;9.83;;;12.10;99.90;;;;;;5053127;28;20206;-56
2024/03/03 08:46:57;;;;;;;13.17;9.77;;;12.20;99.90;;;;;;5052791;28;20474;-56
2024/03/03 08:49:24;;;;;;;13.37;9.07;;;12.40;99.90;;;;;;5052775;28;20202;-55
2024/03/03 08:51:51;;;;;;;11.70;9.70;;;12.60;99.90;;;;;;5052452;28;20225;-57
2024/03/03 08:54:19;;;;;;;11.40;9.10;;;12.80;99.90;;;;;;5052493;28;20202;-55
2024/03/03 08:56:45;;;;;;;10.50;8.30;;;13.10;99.90;;;;;;5052435;28;20222;-56
2024/03/03 08:59:12;;;;;;;12.40;9.13;;;13.10;99.90;;;;;;5052303;28;20210;-57
2024/03/03 09:01:39;;;;;;;10.77;8.20;;;13.20;99.90;;;;;;5052587;28;20212;-56
2024/03/03 09:04:05;;;;;;;9.70;8.03;;;13.20;99.90;;;;;;5052478;28;20201;-58
2024/03/03 09:06:32;;;;;;;10.50;8.33;;;13.40;99.90;;;;;;5052647;28;20588;-57
2024/03/03 09:08:58;;;;;;;9.20;7.87;;;13.50;99.90;;;;;;5052165;28;20671;-56
2024/03/03 09:11:27;;;;;;;9.53;7.47;;;13.50;99.90;;;;;;5052239;28;20336;-57
2024/03/03 09:13:54;;;;;;;10.13;7.67;;;13.50;99.90;;;;;;5051824;28;20228;-57
2024/03/03 09:16:20;;;;;;;9.67;7.60;;;13.60;99.90;;;;;;5052230;28;20440;-57
2024/03/03 09:18:49;;;;;;;8.97;7.77;;;13.60;99.90;;;;;;5052051;28;20202;-58
2024/03/03 09:21:16;;;;;;;9.93;7.97;;;13.70;99.90;;;;;;5052111;28;20296;-56
2024/03/03 09:23:42;;;;;;;8.83;7.07;;;13.80;99.90;;;;;;5051915;28;20209;-57
2024/03/03 09:26:09;;;;;;;9.03;7.30;;;14.00;99.90;;;;;;5051583;28;20225;-56
2024/03/03 09:28:37;;;;;;;8.67;6.83;;;14.20;99.90;;;;;;5058003;28;20252;-60
2024/03/03 09:31:04;;;;;;;9.53;6.23;;;14.40;99.90;;;;;;5051467;28;20741;-61
2024/03/03 09:33:32;;;;;;;8.53;7.10;;;14.50;99.90;;;;;;5051635;28;20228;-62
2024/03/03 09:35:58;;;;;;;8.27;7.13;;;14.70;99.90;;;;;;5051753;28;20268;-62
2024/03/03 09:38:25;;;;;;;7.13;6.23;;;14.90;99.90;;;;;;5052041;28;20631;-62
2024/03/03 09:40:52;;;;;;;9.07;5.80;;;15.10;99.90;;;;;;5051322;28;20213;-62
2024/03/03 09:43:19;;;;;;;7.47;6.47;;;15.20;99.90;;;;;;5051520;28;20201;-62
2024/03/03 09:45:50;;;;;;;7.40;6.20;;;15.40;99.90;;;;;;5070809;22;20699;-60
2024/03/03 09:48:17;;;;;;;6.25;5.35;;;15.50;99.90;;;;;;5042150;28;20235;-60
2024/03/03 09:50:44;;;;;;;9.90;8.73;;;15.70;99.90;;;;;;5043377;28;20202;-63
2024/03/03 09:53:11;;;;;;;8.20;5.60;;;15.80;99.90;;;;;;5040741;28;20406;-60
2024/03/03 09:55:38;;;;;;;5.75;4.70;;;15.80;99.90;;;;;;5040022;28;20638;-61
2024/03/03 09:58:08;;;;;;;7.13;4.93;;;15.70;99.90;;;;;;5031217;28;20614;-61
2024/03/03 10:00:34;;;;;;;7.22;6.43;;;15.70;99.90;;;;;;5031204;28;20264;-63
2024/03/03 10:03:03;;;;;;;8.75;4.78;;;15.60;99.90;;;;;;5031014;28;20206;-64
2024/03/03 10:05:32;;;;;;;5.60;4.95;;;15.60;99.90;;;;;;5031688;28;20226;-62
2024/03/03 10:08:01;;;;;;;5.88;4.78;;;15.70;99.90;;;;;;5031355;28;20206;-61
2024/03/03 10:10:31;;;;;;;4.70;4.20;;;15.80;99.90;;;;;;5031559;28;20209;-61
2024/03/03 10:12:59;;;;;;;6.32;4.35;;;15.80;99.90;;;;;;5030516;28;20726;-62
2024/03/03 10:15:26;;;;;;;5.95;4.05;;;15.90;99.90;;;;;;5021081;28;20350;-60
2024/03/03 10:17:52;;;;;;;4.78;4.07;;;16.00;99.90;;;;;;5008356;28;20214;-59
2024/03/03 10:20:20;;;;;;;4.95;4.13;;;16.10;99.90;;;;;;5006656;28;20211;-63
2024/03/03 10:22:47;;;;;;;4.15;3.35;;;16.20;99.90;;;;;;5010553;28;20203;-59
2024/03/03 10:25:15;;;;;;;3.92;3.35;;;16.10;99.90;;;;;;5025709;28;20297;-59
2024/03/03 10:27:44;;;;;;;5.93;3.85;;;16.00;99.90;;;;;;5035212;28;20237;-59
2024/03/03 10:30:14;;;;;;;5.35;3.95;;;16.00;99.90;;;;;;5035399;28;20202;-59
2024/03/03 10:32:41;;;;;;;5.60;3.53;;;16.10;99.90;;;;;;5034920;28;20230;-59
2024/03/03 10:35:10;;;;;;;5.20;3.45;;;16.20;99.90;;;;;;5034946;28;20581;-60
2024/03/03 10:37:48;;;;;;;5.32;3.50;;;16.30;99.90;;;;;;5035174;28;20206;-59
2024/03/03 10:40:15;;;;;;;3.95;3.42;;;16.30;99.90;;;;;;5034978;28;20217;-59
2024/03/03 10:42:41;;;;;;;4.22;3.60;;;16.20;99.90;;;;;;5034744;28;20207;-60
2024/03/03 10:45:09;;;;;;;3.92;3.50;;;16.10;99.90;;;;;;5034567;28;20333;-59
2024/03/03 10:47:36;;;;;;;4.72;3.58;;;16.10;99.90;;;;;;5035163;28;20248;-61
2024/03/03 10:50:06;;;;;;;3.80;3.28;;;16.30;99.90;;;;;;5034969;28;20297;-59
2024/03/03 10:52:33;;;;;;;3.17;2.85;;;16.40;99.90;;;;;;5034814;28;20667;-60
2024/03/03 10:55:02;;;;;;;4.38;3.30;;;16.50;99.90;;;;;;5034797;28;20257;-60
2024/03/03 10:57:29;;;;;;;4.28;3.38;;;16.70;99.90;;;;;;5034545;28;20232;-59
2024/03/03 10:59:57;;;;;;;3.20;2.90;;;16.80;99.90;;;;;;5034603;28;20260;-60
2024/03/03 11:02:29;;;;;;;4.38;2.90;;;16.80;99.90;;;;;;5034732;28;20210;-59
2024/03/03 11:04:57;;;;;;;3.75;3.03;;;16.90;99.90;;;;;;5034812;28;20588;-60
2024/03/03 11:07:24;;;;;;;3.33;2.83;;;17.10;99.90;;;;;;5034616;28;20218;-60
2024/03/03 11:09:51;;;;;;;4.78;2.88;;;17.30;99.90;;;;;;5034545;28;20314;-60
2024/03/03 11:12:22;;;;;;;3.05;2.70;;;17.60;99.90;;;;;;5034071;28;20537;-60
2024/03/03 11:14:49;;;;;;;2.80;2.50;;;17.90;99.90;;;;;;5034640;28;20210;-59
2024/03/03 11:17:19;;;;;;;3.75;2.30;;;18.10;99.90;;;;;;5034377;28;20234;-59
2024/03/03 11:19:47;;;;;;;2.92;2.10;;;18.20;99.90;;;;;;5034834;28;20226;-60
2024/03/03 11:22:18;;;;;;;2.83;2.22;;;18.40;99.90;;;;;;5033972;28;20203;-58
2024/03/03 11:24:53;;;;;;;2.40;1.92;;;18.50;99.40;;;;;;5033989;28;20723;-61
2024/03/03 11:27:23;;;;;;;2.22;1.85;;;18.60;98.90;;;;;;5033893;28;22480;-59
2024/03/03 11:29:50;;;;;;;2.47;1.95;;;18.60;97.40;;;;;;5033760;28;20204;-61
2024/03/03 11:32:19;;;;;;;3.15;2.00;;;18.50;97.30;;;;;;5033736;28;20214;-59
2024/03/03 11:34:46;;;;;;;2.88;2.25;;;18.40;98.00;;;;;;5034443;28;20237;-58
2024/03/03 11:37:14;;;;;;;2.05;1.85;;;18.50;98.40;;;;;;5034031;28;20230;-59
2024/03/03 11:39:50;;;;;;;2.80;2.20;;;18.60;97.50;;;;;;5034310;28;20297;-59
2024/03/03 11:42:22;;;;;;;2.55;2.17;;;18.60;97.50;;;;;;5034326;28;20205;-62
2024/03/03 11:44:50;;;;;;;2.20;1.95;;;18.80;97.20;;;;;;5034768;28;20570;-59
2024/03/03 11:47:17;;;;;;;3.70;2.45;;;19.00;96.90;;;;;;5033549;28;20234;-62
2024/03/03 11:49:44;;;;;;;2.35;1.90;;;19.30;96.90;;;;;;5033736;28;20202;-60
2024/03/03 11:52:12;;;;;;;5.13;3.35;;;19.50;96.20;;;;;;5033689;28;20211;-60
2024/03/03 11:54:41;;;;;;;3.00;2.30;;;19.70;95.20;;;;;;5033924;28;20309;-60
2024/03/03 11:57:09;;;;;;;2.85;2.20;;;19.70;95.00;;;;;;5033761;28;20239;-60
2024/03/03 11:59:39;;;;;;;3.03;1.90;;;19.70;95.40;;;;;;5033853;28;20285;-60
2024/03/03 12:02:08;;;;;;;2.83;2.25;;;19.60;95.40;;;;;;5033546;28;20203;-62
2024/03/03 12:04:35;;;;;;;2.95;1.70;;;19.60;95.10;;;;;;5033754;28;20198;-65
2024/03/03 12:07:06;;;;;;;1.75;1.58;;;19.40;94.40;;;;;;5034086;28;20305;-61
2024/03/03 12:09:33;;;;;;;3.13;2.58;;;19.30;94.50;;;;;;5033965;28;20679;-60
2024/03/03 12:12:00;;;;;;;2.67;2.20;;;19.30;94.20;;;;;;5033634;28;20213;-61
2024/03/03 12:14:27;;;;;;;2.40;1.98;;;19.40;94.20;;;;;;5017453;28;20264;-61
2024/03/03 12:16:55;;;;;;;1.95;1.77;;;19.50;94.30;;;;;;5033468;28;20222;-60
2024/03/03 12:19:22;;;;;;;3.38;2.00;;;19.50;94.00;;;;;;5032895;28;20245;-57
2024/03/03 12:21:48;;;;;;;1.55;1.45;;;19.60;94.40;;;;;;5019810;28;20583;-60
2024/03/03 12:24:16;;;;;;;1.80;1.40;;;19.70;93.10;;;;;;5031315;28;20203;-62
2024/03/03 12:26:43;;;;;;;1.90;1.40;;;19.90;92.30;;;;;;5033663;28;20368;-60
2024/03/03 12:29:09;;;;;;;1.92;1.60;;;20.10;91.10;;;;;;5010298;28;20211;-61
2024/03/03 12:31:36;;;;;;;1.90;1.70;;;20.10;91.70;;;;;;5013302;28;20993;-59
2024/03/03 12:34:05;;;;;;;1.65;1.52;;;20.20;91.70;;;;;;5012813;28;20655;-59
2024/03/03 12:36:31;;;;;;;1.50;1.33;;;20.30;91.60;;;;;;5013084;28;20309;-59
2024/03/03 12:38:58;;;;;;;1.70;1.20;;;20.50;90.90;;;;;;5012892;28;20211;-58